| Pilot: | GLD1793 Tiago I. | Aircraft: | ATCCOM.ATC_NAME_BEECHCR | Distance: | 19NM |
| From: | TVSU | To: | TVSC | Duration: | 0.19 |
| Validation: | Valid | Tipo: | Charter | Tail Number: | PT-GLD |
| ZFW: | 4324 | Block Fuel/Init FOB | 133flight_details.php/123 | Flight Fuel | 133 |
| Passengers: | 5 | Cargo: | 0 | Alternate: | TTPP |
| Departure Time: | 1908 | Cruise Speed: | 193 | Flight Level: | FL300 |
| Flight Type: | IFR | Aircraft Type: | BE58 | Weight Unit: | Kg |
| Date: | 03/05/2026 | Comments: | GOLD ACARS | Network: | VATSIM |
| Crash: | No | Validator Comments: | Rating | 100 |
| ROUTE | DCT CAI DCT |
| REMARKS | OPR/GOLD VIRTUAL AIRLINES PER/C RMK/FROM TVSU RMK/PIC GLD1793 |
| Crash | OK | Beacon Lights off with engine on | OK | Speed above 250KIAS below 10.000ft | OK |
| Landing Lights OFF below 10.000ft | OK | Landing Lights ON above 10.000ft | OK | Stall | OK |
| Overspeed | OK | Pause | OK | Refuel | OK |
| Slew | OK | Taxi Lights OFF during taxi | OK | Land Lights OFF during take off | OK |
| Landing Lights OFF during landing | OK | Landed in not planned airfield | OK | Taxi speed above 25 kt | OK |
| Incorrect QNH during take off | OK | Incorrect QNH during landing | OK |
| Wind: | 99º/17 kt | Heading: | 118 |
| VS: | -64 ft/min | IAS: | 91 kt |
| Gforce: | 1.1312 G | Bank: | -0.94 |
| Pitch | 4.45 | Flaps | 50 |
| Nav Lights | ON | Landing Lights | ON |
| Beacon Lights | ON | Strobe Lights | ON |
| DATE | EVENT | IAS | ALTITUDE |
|---|---|---|---|
| 2026-05-03 19:08:08 | GOLD ACARS VERSION 3.3.7.0 | 0 | 0 |
| 2026-05-03 19:08:08 | BOARDING | 0 | 10 |
| 2026-05-03 19:08:08 | FLAP 100% | 0 | 10 |
| 2026-05-03 19:08:25 | STB LIGHTS ON | 0 | 10 |
| 2026-05-03 19:09:22 | STARTING ENGINE 1 | 0 | 10 |
| 2026-05-03 19:09:43 | STARTING ENGINE 2 | 0 | 10 |
| 2026-05-03 19:10:01 | TAXI TO THE RWY | 0 | 10 |
| 2026-05-03 19:10:17 | TAXI LIGHTS ON | 0 | 9 |
| 2026-05-03 19:10:18 | NAV LIGHTS ON | 0 | 9 |
| 2026-05-03 19:10:19 | LND LIGHTS ON | 0 | 9 |
| 2026-05-03 19:11:08 | GEAR UP | 102 | 37 |
| 2026-05-03 19:11:14 | CLIMBING | 107 | 80 |
| 2026-05-03 19:11:17 | FLAP 50% | 108 | 110 |
| 2026-05-03 19:11:24 | CRUISE | 118 | 188 |
| 2026-05-03 19:11:29 | FLAP 0% | 128 | 205 |
| 2026-05-03 19:11:35 | CLIMBING | 141 | 244 |
| 2026-05-03 19:12:05 | AP ENGAGED | 148 | 1020 |
| 2026-05-03 19:12:11 | CRUISE | 153 | 1155 |
| 2026-05-03 19:12:12 | LANDING | 156 | 1153 |
| 2026-05-03 19:17:20 | AP DISENGAGED | 139 | 598 |
| 2026-05-03 19:17:24 | GEAR DOWN | 134 | 584 |
| 2026-05-03 19:17:26 | FLAP 50% | 133 | 557 |
| 2026-05-03 19:18:17 | LANDED AIRPORT [TVSC] | 92 | 17 |
| 2026-05-03 19:18:17 | LANDED - VS: -64 ft/min | 90 | 16 |
| 2026-05-03 19:18:29 | TAXI TO THE GATE | 27 | 16 |
| 2026-05-03 19:19:16 | AT THE GATE | 0 | 15 |
| 2026-05-03 19:19:26 | STOPPING ENGINE 1 | 0 | 15 |
| 2026-05-03 19:19:28 | STOPPING ENGINE 2 | 0 | 15 |
| 2026-05-03 19:19:30 | BCN LIGHTS OFF | 0 | 15 |
| 2026-05-03 19:19:30 | FLIGHT FINISHED | 0 | 15 |
| 2026-05-03 19:08:08 | GOLD ACARS VERSION 3.3.7.0 | 0 | 0 |
| 2026-05-03 19:08:08 | BOARDING | 0 | 10 |
| 2026-05-03 19:08:08 | FLAP 100% | 0 | 10 |
| 2026-05-03 19:08:25 | STB LIGHTS ON | 0 | 10 |
| 2026-05-03 19:09:22 | STARTING ENGINE 1 | 0 | 10 |
| 2026-05-03 19:09:43 | STARTING ENGINE 2 | 0 | 10 |
| 2026-05-03 19:10:01 | TAXI TO THE RWY | 0 | 10 |
| 2026-05-03 19:10:17 | TAXI LIGHTS ON | 0 | 9 |
| 2026-05-03 19:10:18 | NAV LIGHTS ON | 0 | 9 |
| 2026-05-03 19:10:19 | LND LIGHTS ON | 0 | 9 |
| 2026-05-03 19:11:08 | GEAR UP | 102 | 37 |
| 2026-05-03 19:11:14 | CLIMBING | 107 | 80 |
| 2026-05-03 19:11:17 | FLAP 50% | 108 | 110 |
| 2026-05-03 19:11:24 | CRUISE | 118 | 188 |
| 2026-05-03 19:11:29 | FLAP 0% | 128 | 205 |
| 2026-05-03 19:11:35 | CLIMBING | 141 | 244 |
| 2026-05-03 19:12:05 | AP ENGAGED | 148 | 1020 |
| 2026-05-03 19:12:11 | CRUISE | 153 | 1155 |
| 2026-05-03 19:12:12 | LANDING | 156 | 1153 |
| 2026-05-03 19:17:20 | AP DISENGAGED | 139 | 598 |
| 2026-05-03 19:17:24 | GEAR DOWN | 134 | 584 |
| 2026-05-03 19:17:26 | FLAP 50% | 133 | 557 |
| 2026-05-03 19:18:17 | LANDED AIRPORT [TVSC] | 92 | 17 |
| 2026-05-03 19:18:17 | LANDED - VS: -64 ft/min | 90 | 16 |
| 2026-05-03 19:18:29 | TAXI TO THE GATE | 27 | 16 |
| 2026-05-03 19:19:16 | AT THE GATE | 0 | 15 |
| 2026-05-03 19:19:26 | STOPPING ENGINE 1 | 0 | 15 |
| 2026-05-03 19:19:28 | STOPPING ENGINE 2 | 0 | 15 |
| 2026-05-03 19:19:30 | BCN LIGHTS OFF | 0 | 15 |
| 2026-05-03 19:19:30 | FLIGHT FINISHED | 0 | 15 |
| 2026-05-03 19:21:37 | NAV LIGHTS OFF | 0 | 15 |
| 2026-05-03 19:21:38 | TAXI LIGHTS OFF | 0 | 15 |
| 2026-05-03 19:21:38 | STB LIGHTS OFF | 0 | 15 |
| 2026-05-03 19:21:39 | LND LIGHTS OFF | 0 | 15 |
| 2026-05-03 19:08:08 | GOLD ACARS VERSION 3.3.7.0 | 0 | 0 |
| 2026-05-03 19:08:08 | BOARDING | 0 | 10 |
| 2026-05-03 19:08:08 | FLAP 100% | 0 | 10 |
| 2026-05-03 19:08:25 | STB LIGHTS ON | 0 | 10 |
| 2026-05-03 19:09:22 | STARTING ENGINE 1 | 0 | 10 |
| 2026-05-03 19:09:43 | STARTING ENGINE 2 | 0 | 10 |
| 2026-05-03 19:10:01 | TAXI TO THE RWY | 0 | 10 |
| 2026-05-03 19:10:17 | TAXI LIGHTS ON | 0 | 9 |
| 2026-05-03 19:10:18 | NAV LIGHTS ON | 0 | 9 |
| 2026-05-03 19:10:19 | LND LIGHTS ON | 0 | 9 |
| 2026-05-03 19:11:08 | GEAR UP | 102 | 37 |
| 2026-05-03 19:11:14 | CLIMBING | 107 | 80 |
| 2026-05-03 19:11:17 | FLAP 50% | 108 | 110 |
| 2026-05-03 19:11:24 | CRUISE | 118 | 188 |
| 2026-05-03 19:11:29 | FLAP 0% | 128 | 205 |
| 2026-05-03 19:11:35 | CLIMBING | 141 | 244 |
| 2026-05-03 19:12:05 | AP ENGAGED | 148 | 1020 |
| 2026-05-03 19:12:11 | CRUISE | 153 | 1155 |
| 2026-05-03 19:12:12 | LANDING | 156 | 1153 |
| 2026-05-03 19:17:20 | AP DISENGAGED | 139 | 598 |
| 2026-05-03 19:17:24 | GEAR DOWN | 134 | 584 |
| 2026-05-03 19:17:26 | FLAP 50% | 133 | 557 |
| 2026-05-03 19:18:17 | LANDED AIRPORT [TVSC] | 92 | 17 |
| 2026-05-03 19:18:17 | LANDED - VS: -64 ft/min | 90 | 16 |
| 2026-05-03 19:18:29 | TAXI TO THE GATE | 27 | 16 |
| 2026-05-03 19:19:16 | AT THE GATE | 0 | 15 |
| 2026-05-03 19:19:26 | STOPPING ENGINE 1 | 0 | 15 |
| 2026-05-03 19:19:28 | STOPPING ENGINE 2 | 0 | 15 |
| 2026-05-03 19:19:30 | BCN LIGHTS OFF | 0 | 15 |
| 2026-05-03 19:19:30 | FLIGHT FINISHED | 0 | 15 |
| 2026-05-03 19:21:37 | NAV LIGHTS OFF | 0 | 15 |
| 2026-05-03 19:21:38 | TAXI LIGHTS OFF | 0 | 15 |
| 2026-05-03 19:21:38 | STB LIGHTS OFF | 0 | 15 |
| 2026-05-03 19:21:39 | LND LIGHTS OFF | 0 | 15 |
| 2026-05-03 19:08:08 | GOLD ACARS VERSION 3.3.7.0 | 0 | 0 |
| 2026-05-03 19:08:08 | BOARDING | 0 | 10 |
| 2026-05-03 19:08:08 | FLAP 100% | 0 | 10 |
| 2026-05-03 19:08:25 | STB LIGHTS ON | 0 | 10 |
| 2026-05-03 19:09:22 | STARTING ENGINE 1 | 0 | 10 |
| 2026-05-03 19:09:43 | STARTING ENGINE 2 | 0 | 10 |
| 2026-05-03 19:10:01 | TAXI TO THE RWY | 0 | 10 |
| 2026-05-03 19:10:17 | TAXI LIGHTS ON | 0 | 9 |
| 2026-05-03 19:10:18 | NAV LIGHTS ON | 0 | 9 |
| 2026-05-03 19:10:19 | LND LIGHTS ON | 0 | 9 |
| 2026-05-03 19:11:08 | GEAR UP | 102 | 37 |
| 2026-05-03 19:11:14 | CLIMBING | 107 | 80 |
| 2026-05-03 19:11:17 | FLAP 50% | 108 | 110 |
| 2026-05-03 19:11:24 | CRUISE | 118 | 188 |
| 2026-05-03 19:11:29 | FLAP 0% | 128 | 205 |
| 2026-05-03 19:11:35 | CLIMBING | 141 | 244 |
| 2026-05-03 19:12:05 | AP ENGAGED | 148 | 1020 |
| 2026-05-03 19:12:11 | CRUISE | 153 | 1155 |
| 2026-05-03 19:12:12 | LANDING | 156 | 1153 |
| 2026-05-03 19:17:20 | AP DISENGAGED | 139 | 598 |
| 2026-05-03 19:17:24 | GEAR DOWN | 134 | 584 |
| 2026-05-03 19:17:26 | FLAP 50% | 133 | 557 |
| 2026-05-03 19:18:17 | LANDED AIRPORT [TVSC] | 92 | 17 |
| 2026-05-03 19:18:17 | LANDED - VS: -64 ft/min | 90 | 16 |
| 2026-05-03 19:18:29 | TAXI TO THE GATE | 27 | 16 |
| 2026-05-03 19:19:16 | AT THE GATE | 0 | 15 |
| 2026-05-03 19:19:26 | STOPPING ENGINE 1 | 0 | 15 |
| 2026-05-03 19:19:28 | STOPPING ENGINE 2 | 0 | 15 |
| 2026-05-03 19:19:30 | BCN LIGHTS OFF | 0 | 15 |
| 2026-05-03 19:19:30 | FLIGHT FINISHED | 0 | 15 |
| 2026-05-03 19:21:37 | NAV LIGHTS OFF | 0 | 15 |
| 2026-05-03 19:21:38 | TAXI LIGHTS OFF | 0 | 15 |
| 2026-05-03 19:21:38 | STB LIGHTS OFF | 0 | 15 |
| 2026-05-03 19:21:39 | LND LIGHTS OFF | 0 | 15 |
| 2026-05-03 19:08:08 | GOLD ACARS VERSION 3.3.7.0 | 0 | 0 |
| 2026-05-03 19:08:08 | BOARDING | 0 | 10 |
| 2026-05-03 19:08:08 | FLAP 100% | 0 | 10 |
| 2026-05-03 19:08:25 | STB LIGHTS ON | 0 | 10 |
| 2026-05-03 19:09:22 | STARTING ENGINE 1 | 0 | 10 |
| 2026-05-03 19:09:43 | STARTING ENGINE 2 | 0 | 10 |
| 2026-05-03 19:10:01 | TAXI TO THE RWY | 0 | 10 |
| 2026-05-03 19:10:17 | TAXI LIGHTS ON | 0 | 9 |
| 2026-05-03 19:10:18 | NAV LIGHTS ON | 0 | 9 |
| 2026-05-03 19:10:19 | LND LIGHTS ON | 0 | 9 |
| 2026-05-03 19:11:08 | GEAR UP | 102 | 37 |
| 2026-05-03 19:11:14 | CLIMBING | 107 | 80 |
| 2026-05-03 19:11:17 | FLAP 50% | 108 | 110 |
| 2026-05-03 19:11:24 | CRUISE | 118 | 188 |
| 2026-05-03 19:11:29 | FLAP 0% | 128 | 205 |
| 2026-05-03 19:11:35 | CLIMBING | 141 | 244 |
| 2026-05-03 19:12:05 | AP ENGAGED | 148 | 1020 |
| 2026-05-03 19:12:11 | CRUISE | 153 | 1155 |
| 2026-05-03 19:12:12 | LANDING | 156 | 1153 |
| 2026-05-03 19:17:20 | AP DISENGAGED | 139 | 598 |
| 2026-05-03 19:17:24 | GEAR DOWN | 134 | 584 |
| 2026-05-03 19:17:26 | FLAP 50% | 133 | 557 |
| 2026-05-03 19:18:17 | LANDED AIRPORT [TVSC] | 92 | 17 |
| 2026-05-03 19:18:17 | LANDED - VS: -64 ft/min | 90 | 16 |
| 2026-05-03 19:18:29 | TAXI TO THE GATE | 27 | 16 |
| 2026-05-03 19:19:16 | AT THE GATE | 0 | 15 |
| 2026-05-03 19:19:26 | STOPPING ENGINE 1 | 0 | 15 |
| 2026-05-03 19:19:28 | STOPPING ENGINE 2 | 0 | 15 |
| 2026-05-03 19:19:30 | BCN LIGHTS OFF | 0 | 15 |
| 2026-05-03 19:19:30 | FLIGHT FINISHED | 0 | 15 |
| 2026-05-03 19:21:37 | NAV LIGHTS OFF | 0 | 15 |
| 2026-05-03 19:21:38 | TAXI LIGHTS OFF | 0 | 15 |
| 2026-05-03 19:21:38 | STB LIGHTS OFF | 0 | 15 |
| 2026-05-03 19:21:39 | LND LIGHTS OFF | 0 | 15 |
| 2026-05-03 19:08:08 | GOLD ACARS VERSION 3.3.7.0 | 0 | 0 |
| 2026-05-03 19:08:08 | BOARDING | 0 | 10 |
| 2026-05-03 19:08:08 | FLAP 100% | 0 | 10 |
| 2026-05-03 19:08:25 | STB LIGHTS ON | 0 | 10 |
| 2026-05-03 19:09:22 | STARTING ENGINE 1 | 0 | 10 |
| 2026-05-03 19:09:43 | STARTING ENGINE 2 | 0 | 10 |
| 2026-05-03 19:10:01 | TAXI TO THE RWY | 0 | 10 |
| 2026-05-03 19:10:17 | TAXI LIGHTS ON | 0 | 9 |
| 2026-05-03 19:10:18 | NAV LIGHTS ON | 0 | 9 |
| 2026-05-03 19:10:19 | LND LIGHTS ON | 0 | 9 |
| 2026-05-03 19:11:08 | GEAR UP | 102 | 37 |
| 2026-05-03 19:11:14 | CLIMBING | 107 | 80 |
| 2026-05-03 19:11:17 | FLAP 50% | 108 | 110 |
| 2026-05-03 19:11:24 | CRUISE | 118 | 188 |
| 2026-05-03 19:11:29 | FLAP 0% | 128 | 205 |
| 2026-05-03 19:11:35 | CLIMBING | 141 | 244 |
| 2026-05-03 19:12:05 | AP ENGAGED | 148 | 1020 |
| 2026-05-03 19:12:11 | CRUISE | 153 | 1155 |
| 2026-05-03 19:12:12 | LANDING | 156 | 1153 |
| 2026-05-03 19:17:20 | AP DISENGAGED | 139 | 598 |
| 2026-05-03 19:17:24 | GEAR DOWN | 134 | 584 |
| 2026-05-03 19:17:26 | FLAP 50% | 133 | 557 |
| 2026-05-03 19:18:17 | LANDED AIRPORT [TVSC] | 92 | 17 |
| 2026-05-03 19:18:17 | LANDED - VS: -64 ft/min | 90 | 16 |
| 2026-05-03 19:18:29 | TAXI TO THE GATE | 27 | 16 |
| 2026-05-03 19:19:16 | AT THE GATE | 0 | 15 |
| 2026-05-03 19:19:26 | STOPPING ENGINE 1 | 0 | 15 |
| 2026-05-03 19:19:28 | STOPPING ENGINE 2 | 0 | 15 |
| 2026-05-03 19:19:30 | BCN LIGHTS OFF | 0 | 15 |
| 2026-05-03 19:19:30 | FLIGHT FINISHED | 0 | 15 |
| 2026-05-03 19:21:37 | NAV LIGHTS OFF | 0 | 15 |
| 2026-05-03 19:21:38 | TAXI LIGHTS OFF | 0 | 15 |
| 2026-05-03 19:21:38 | STB LIGHTS OFF | 0 | 15 |
| 2026-05-03 19:21:39 | LND LIGHTS OFF | 0 | 15 |
| 2026-05-03 19:08:08 | GOLD ACARS VERSION 3.3.7.0 | 0 | 0 |
| 2026-05-03 19:08:08 | BOARDING | 0 | 10 |
| 2026-05-03 19:08:08 | FLAP 100% | 0 | 10 |
| 2026-05-03 19:08:25 | STB LIGHTS ON | 0 | 10 |
| 2026-05-03 19:09:22 | STARTING ENGINE 1 | 0 | 10 |
| 2026-05-03 19:09:43 | STARTING ENGINE 2 | 0 | 10 |
| 2026-05-03 19:10:01 | TAXI TO THE RWY | 0 | 10 |
| 2026-05-03 19:10:17 | TAXI LIGHTS ON | 0 | 9 |
| 2026-05-03 19:10:18 | NAV LIGHTS ON | 0 | 9 |
| 2026-05-03 19:10:19 | LND LIGHTS ON | 0 | 9 |
| 2026-05-03 19:11:08 | GEAR UP | 102 | 37 |
| 2026-05-03 19:11:14 | CLIMBING | 107 | 80 |
| 2026-05-03 19:11:17 | FLAP 50% | 108 | 110 |
| 2026-05-03 19:11:24 | CRUISE | 118 | 188 |
| 2026-05-03 19:11:29 | FLAP 0% | 128 | 205 |
| 2026-05-03 19:11:35 | CLIMBING | 141 | 244 |
| 2026-05-03 19:12:05 | AP ENGAGED | 148 | 1020 |
| 2026-05-03 19:12:11 | CRUISE | 153 | 1155 |
| 2026-05-03 19:12:12 | LANDING | 156 | 1153 |
| 2026-05-03 19:17:20 | AP DISENGAGED | 139 | 598 |
| 2026-05-03 19:17:24 | GEAR DOWN | 134 | 584 |
| 2026-05-03 19:17:26 | FLAP 50% | 133 | 557 |
| 2026-05-03 19:18:17 | LANDED AIRPORT [TVSC] | 92 | 17 |
| 2026-05-03 19:18:17 | LANDED - VS: -64 ft/min | 90 | 16 |
| 2026-05-03 19:18:29 | TAXI TO THE GATE | 27 | 16 |
| 2026-05-03 19:19:16 | AT THE GATE | 0 | 15 |
| 2026-05-03 19:19:26 | STOPPING ENGINE 1 | 0 | 15 |
| 2026-05-03 19:19:28 | STOPPING ENGINE 2 | 0 | 15 |
| 2026-05-03 19:19:30 | BCN LIGHTS OFF | 0 | 15 |
| 2026-05-03 19:19:30 | FLIGHT FINISHED | 0 | 15 |
| 2026-05-03 19:21:37 | NAV LIGHTS OFF | 0 | 15 |
| 2026-05-03 19:21:38 | TAXI LIGHTS OFF | 0 | 15 |
| 2026-05-03 19:21:38 | STB LIGHTS OFF | 0 | 15 |
| 2026-05-03 19:21:39 | LND LIGHTS OFF | 0 | 15 |
| DATE | IAS | GS | ALTITUDE | FUEL USED | OAT | Flight Phase |
|---|---|---|---|---|---|---|
| 2026-05-03 19:09:57 | 0 | 0 | 10 | 0 | 28 | BOARDING |
| 2026-05-03 19:10:58 | 83 | 77 | 13 | 1 | 28 | BOARDING |
| 2026-05-03 19:12:00 | 147 | 147 | 770 | 3 | 25 | TAXI TO THE RWY |
| 2026-05-03 19:13:00 | 195 | 193 | 1076 | 5 | 24 | CLIMBING |
| 2026-05-03 19:14:02 | 194 | 189 | 1282 | 7 | 23 | LANDING |
| 2026-05-03 19:15:02 | 160 | 166 | 800 | 8 | 25 | LANDING |
| 2026-05-03 19:16:03 | 152 | 165 | 598 | 9 | 26 | LANDING |
| 2026-05-03 19:17:03 | 146 | 143 | 593 | 10 | 26 | LANDING |
| 2026-05-03 19:18:04 | 111 | 101 | 30 | 10 | 28 | LANDING |
| 2026-05-03 19:19:05 | 0 | 12 | 15 | 10 | 28 | LANDING |
| 2026-05-03 19:23:08 | 0 | 0 | 15 | 0 | 28 | TAXI TO THE GATE |